Anne Sibum — C4YC2 — position and weather

sailwx.info

Track history (hours):
 
Tides and Currents Weather Stations Pressure Air Temp Water Temp Dewpoint Dewpoint Depression Visibility Wind Speed Wind Dir Waves Ship Positions

Anne Sibum

Last reported at 2017-Feb-25 08:31 UTC. Time now 2017-Feb-25 09:09 UTC.
Position N 51°57' E 004°03'.

; draft 6.7 m.

Type: Ship (hazmat cat A). MMSI: 209322000.

Date/timePositionNaut miles runAvg speedWind from/ knotsBaromVisibWave heightAir tempDewpointWater temp
2017-Feb-25 08:31N 51°57' E 004°03'0 0.0
2017-Feb-25 07:31N 51°57' E 004°03'0 0.0
2017-Feb-25 06:31N 51°57' E 004°03'0 0.1
2017-Feb-25 05:34N 51°58' E 004°02'4 3.5
2017-Feb-25 04:33N 51°58' E 004°08'1111.4
2017-Feb-25 03:33N 51°53' E 004°24'1 0.7
2017-Feb-25 02:32N 51°53' E 004°25'0 0.0
2017-Feb-25 01:32N 51°53' E 004°25'0 0.0
2017-Feb-25 00:31N 51°53' E 004°25'0 0.0
2017-Feb-24 23:32N 51°53' E 004°25'0 0.0
2017-Feb-24 22:32N 51°53' E 004°25'0 0.0
2017-Feb-24 21:32N 51°53' E 004°25'0 0.0
2017-Feb-24 20:31N 51°53' E 004°25'0 0.0
2017-Feb-24 19:32N 51°53' E 004°25'0 0.0
2017-Feb-24 18:31N 51°53' E 004°25'0 0.0
2017-Feb-24 17:32N 51°53' E 004°25'0 0.0
2017-Feb-24 16:32N 51°53' E 004°25'0 0.0
2017-Feb-24 15:29N 51°53' E 004°25'0 0.0
2017-Feb-24 14:31N 51°53' E 004°25'1 0.6
2017-Feb-24 13:33N 51°53' E 004°25'7 7.3
2017-Feb-24 12:33N 51°55' E 004°14'1312.8
2017-Feb-24 11:33N 52°01' E 003°55'4013.3
2017-Feb-24 08:32N 51°49' E 002°52'1212.4
2017-Feb-24 07:33N 51°43' E 002°35'1212.4
2017-Feb-24 06:33N 51°34' E 002°21'1111.2
2017-Feb-24 05:34N 51°26' E 002°08'1111.0
2017-Feb-24 04:33N 51°15' E 002°06'1110.8
2017-Feb-24 03:33N 51°09' E 001°52'1111.5
2017-Feb-24 02:33N 51°02' E 001°38'6912.9
2017-Feb-23 21:12N 50°22' E 000°10'914.4
2017-Feb-23 20:33N 50°20' W 000°05'1714.4
2017-Feb-23 19:21N 50°17' W 000°31'8614.6
2017-Feb-23 13:30N 50°09' W 002°45'1313.3
2017-Feb-23 12:33N 50°07' W 003°04'1313.4
2017-Feb-23 11:33N 50°05' W 003°25'1313.3
2017-Feb-23 10:33N 50°04' W 003°45'1713.4
2017-Feb-23 09:19N 50°01' W 004°11'1213.6
2017-Feb-23 08:26N 49°59' W 004°29'1213.8
2017-Feb-23 07:33N 49°58' W 004°48'1514.9
2017-Feb-23 06:33N 49°55' W 005°11'6410.5
2017-Feb-23 00:24N 50°51' W 006°00'3014.3
2017-Feb-22 22:18N 51°21' W 005°60'1514.9
2017-Feb-22 21:18N 51°36' W 005°59'1314.5
2017-Feb-22 20:23N 51°49' W 005°55'13615.0
2017-Feb-22 11:17N 54°04' W 005°24'1216.7
2017-Feb-22 10:34N 54°16' W 005°21'1616.3
2017-Feb-22 09:34N 54°33' W 005°21'1414.0
2017-Feb-22 08:34N 54°42' W 005°38'10 4.1
2017-Feb-22 06:14N 54°38' W 005°53'0 0.0
2017-Feb-22 05:32N 54°38' W 005°53'0 0.0
2017-Feb-22 04:33N 54°38' W 005°53'0 0.0
2017-Feb-22 03:20N 54°38' W 005°53'0 0.0
2017-Feb-22 01:26N 54°38' W 005°53'0 0.0
2017-Feb-22 00:32N 54°38' W 005°53'0 0.0
2017-Feb-21 23:32N 54°38' W 005°53'0 0.0
2017-Feb-21 22:24N 54°38' W 005°53'0 0.0
2017-Feb-21 21:17N 54°38' W 005°53'0 0.0
2017-Feb-21 20:29N 54°38' W 005°53'0 0.0
2017-Feb-21 13:03N 54°38' W 005°53'0 0.0
2017-Feb-21 06:18N 54°38' W 005°53'0 0.0
2017-Feb-21 05:20N 54°38' W 005°53'0 0.0
2017-Feb-21 00:07N 54°38' W 005°53'3 4.5
2017-Feb-20 23:28N 54°40' W 005°50'8 8.6
2017-Feb-20 22:34N 54°43' W 005°37'1514.7
2017-Feb-20 21:33N 54°32' W 005°21'1616.4
2017-Feb-20 20:33N 54°15' W 005°25'1716.7
2017-Feb-20 19:33N 53°60' W 005°35'178 6.5
2017-Feb-19 16:15N 51°02' W 005°52'1216.5
2017-Feb-19 15:33N 50°51' W 005°52'1616.4
2017-Feb-19 14:33N 50°35' W 005°53'1616.4
2017-Feb-19 13:34N 50°18' W 005°53'3712.2
2017-Feb-19 10:32N 49°56' W 005°07'1414.5
2017-Feb-19 09:33N 49°58' W 004°46'1616.0
2017-Feb-19 08:32N 50°02' W 004°21'1616.5
2017-Feb-19 07:33N 50°04' W 003°56'1717.0
2017-Feb-19 06:33N 50°07' W 003°30'1717.0
2017-Feb-19 05:33N 50°10' W 003°04'1716.8
2017-Feb-19 04:33N 50°13' W 002°38'2216.1
2017-Feb-19 03:12N 50°17' W 002°05'1215.3
2017-Feb-19 02:24N 50°19' W 001°46'1214.7
2017-Feb-19 01:33N 50°22' W 001°27'1414.3
2017-Feb-19 00:33N 50°24' W 001°05'1514.8
2017-Feb-18 23:33N 50°27' W 000°42'1616.1
2017-Feb-18 22:33N 50°30' W 000°17'1716.9
2017-Feb-18 21:34N 50°34' E 000°09'1717.2
2017-Feb-18 20:33N 50°39' E 000°35'1716.9
2017-Feb-18 19:33N 50°48' E 000°57'1616.1
2017-Feb-18 18:34N 50°56' E 001°19'1514.6
2017-Feb-18 17:33N 51°07' E 001°35'1414.2
2017-Feb-18 16:33N 51°18' E 001°48'1615.6
2017-Feb-18 15:33N 51°30' E 002°04'1917.0
2017-Feb-18 14:28N 51°44' E 002°24'2317.7
2017-Feb-18 13:09N 52°01' E 002°49'1117.2
2017-Feb-18 12:31N 52°02' E 003°07'1717.5
2017-Feb-18 11:33N 52°03' E 003°35'1414.6
2017-Feb-18 10:33N 52°01' E 003°58'1211.6
2017-Feb-18 09:33N 51°55' E 004°14'7 7.2
2017-Feb-18 08:33N 51°53' E 004°25'0 0.0
2017-Feb-18 07:33N 51°53' E 004°25'0 0.0
2017-Feb-18 06:33N 51°53' E 004°25'0 0.0
2017-Feb-18 05:33N 51°53' E 004°25'0 0.0
2017-Feb-18 04:33N 51°53' E 004°25'0 0.0
2017-Feb-18 03:33N 51°53' E 004°25'0 0.0
2017-Feb-18 02:33N 51°53' E 004°25'0 0.0
2017-Feb-18 01:33N 51°53' E 004°25'0 0.0
2017-Feb-18 00:33N 51°53' E 004°25'0 0.0
2017-Feb-17 23:33N 51°53' E 004°25'0 0.0
2017-Feb-17 22:33N 51°53' E 004°25'0 0.0
2017-Feb-17 21:33N 51°53' E 004°25'0 0.0
2017-Feb-17 20:33N 51°53' E 004°25'0 0.0
2017-Feb-17 19:33N 51°53' E 004°25'0 0.0
2017-Feb-17 18:33N 51°53' E 004°25'0 0.0
2017-Feb-17 17:33N 51°53' E 004°25'0 0.0
2017-Feb-17 16:33N 51°53' E 004°25'0 0.0
2017-Feb-17 15:33N 51°53' E 004°25'0 0.0
2017-Feb-17 14:33N 51°53' E 004°25'0 0.0
2017-Feb-17 13:33N 51°53' E 004°25'0 0.0
2017-Feb-17 12:33N 51°53' E 004°25'0 0.0
2017-Feb-17 11:33N 51°53' E 004°25'0 0.0
2017-Feb-17 10:33N 51°53' E 004°25'0 0.0
2017-Feb-17 09:33N 51°53' E 004°25'0 0.0
2017-Feb-17 08:33N 51°53' E 004°25'5 4.8
2017-Feb-17 07:33N 51°54' E 004°18'7 7.1
2017-Feb-17 06:33N 51°58' E 004°08'6 5.7
2017-Feb-17 05:33N 51°54' E 004°14'0 0.0
2017-Feb-17 04:33N 51°54' E 004°14'0 0.0
2017-Feb-17 03:33N 51°54' E 004°14'0 0.0
2017-Feb-17 02:33N 51°54' E 004°14'0 0.0
2017-Feb-17 01:33N 51°54' E 004°14'0 0.0
2017-Feb-17 00:33N 51°54' E 004°14'0 0.0
2017-Feb-16 23:33N 51°54' E 004°14'0 0.0
2017-Feb-16 22:33N 51°54' E 004°14'0 0.0
2017-Feb-16 21:33N 51°54' E 004°14'0 0.0
2017-Feb-16 20:30N 51°54' E 004°14'0 0.0
2017-Feb-16 19:33N 51°54' E 004°14'0 0.0
2017-Feb-16 18:33N 51°54' E 004°14'0 0.0
2017-Feb-16 17:33N 51°54' E 004°14'0 0.0
2017-Feb-16 16:33N 51°54' E 004°14'6 5.8
2017-Feb-16 15:33N 51°58' E 004°08'3 3.1
2017-Feb-16 14:32N 51°57' E 004°03'0 0.0
2017-Feb-16 13:32N 51°57' E 004°03'0 0.0
2017-Feb-16 12:32N 51°57' E 004°03'0 0.0
2017-Feb-16 11:32N 51°57' E 004°03'0 0.0
2017-Feb-16 10:33N 51°57' E 004°03'2 1.7
2017-Feb-16 09:33N 51°58' E 004°00'1 0.7
2017-Feb-16 08:29N 51°57' E 004°00'0 0.0
2017-Feb-16 07:32N 51°57' E 004°00'0 0.0
2017-Feb-16 06:33N 51°57' E 004°00'0 0.0
2017-Feb-16 05:30N 51°57' E 004°00'0 0.0
2017-Feb-16 04:33N 51°57' E 004°00'0 0.0
2017-Feb-16 03:33N 51°57' E 004°00'0 0.0
2017-Feb-16 02:33N 51°57' E 004°00'0 0.0
2017-Feb-16 01:33N 51°57' E 004°00'0 0.0
2017-Feb-16 00:33N 51°57' E 004°00'3 2.9
2017-Feb-15 23:33N 51°57' E 004°05'0 0.3
2017-Feb-15 22:33N 51°57' E 004°04'0 0.0
2017-Feb-15 21:33N 51°57' E 004°04'0 0.0
2017-Feb-15 20:33N 51°57' E 004°04'0 0.0
2017-Feb-15 19:33N 51°57' E 004°04'0 0.0
2017-Feb-15 18:33N 51°57' E 004°04'0 0.0
2017-Feb-15 17:33N 51°57' E 004°04'0 0.0
2017-Feb-15 16:33N 51°57' E 004°04'0 0.0
2017-Feb-15 15:33N 51°57' E 004°04'1 0.7
2017-Feb-15 14:32N 51°57' E 004°03'0 0.0
2017-Feb-15 13:32N 51°57' E 004°03'0 0.0
2017-Feb-15 12:32N 51°57' E 004°03'0 0.0
2017-Feb-15 11:31N 51°57' E 004°03'0 0.0
2017-Feb-15 10:31N 51°57' E 004°03'0 0.0
2017-Feb-15 09:31N 51°57' E 004°03'0 0.0
2017-Feb-15 08:31N 51°57' E 004°03'  
Track history (hours):
 
Tides and Currents Weather Stations Pressure Air Temp Water Temp Dewpoint Dewpoint Depression Visibility Wind Speed Wind Dir Waves Ship Positions

Anne Sibum

Last reported at 2017-Feb-25 08:31 UTC. Time now 2017-Feb-25 09:09 UTC.
Position N 51°57' E 004°03'.

; draft 6.7 m.

Type: Ship (hazmat cat A). MMSI: 209322000.

Date/timePositionNaut miles runAvg speedWind from/ knotsBaromVisibWave heightAir tempDewpointWater temp
2017-Feb-25 08:31N 51°57' E 004°03'0 0.0
2017-Feb-25 07:31N 51°57' E 004°03'0 0.0
2017-Feb-25 06:31N 51°57' E 004°03'0 0.1
2017-Feb-25 05:34N 51°58' E 004°02'4 3.5
2017-Feb-25 04:33N 51°58' E 004°08'1111.4
2017-Feb-25 03:33N 51°53' E 004°24'1 0.7
2017-Feb-25 02:32N 51°53' E 004°25'0 0.0
2017-Feb-25 01:32N 51°53' E 004°25'0 0.0
2017-Feb-25 00:31N 51°53' E 004°25'0 0.0
2017-Feb-24 23:32N 51°53' E 004°25'0 0.0
2017-Feb-24 22:32N 51°53' E 004°25'0 0.0
2017-Feb-24 21:32N 51°53' E 004°25'0 0.0
2017-Feb-24 20:31N 51°53' E 004°25'0 0.0
2017-Feb-24 19:32N 51°53' E 004°25'0 0.0
2017-Feb-24 18:31N 51°53' E 004°25'0 0.0
2017-Feb-24 17:32N 51°53' E 004°25'0 0.0
2017-Feb-24 16:32N 51°53' E 004°25'0 0.0
2017-Feb-24 15:29N 51°53' E 004°25'0 0.0
2017-Feb-24 14:31N 51°53' E 004°25'1 0.6
2017-Feb-24 13:33N 51°53' E 004°25'7 7.3
2017-Feb-24 12:33N 51°55' E 004°14'1312.8
2017-Feb-24 11:33N 52°01' E 003°55'4013.3
2017-Feb-24 08:32N 51°49' E 002°52'1212.4
2017-Feb-24 07:33N 51°43' E 002°35'1212.4
2017-Feb-24 06:33N 51°34' E 002°21'1111.2
2017-Feb-24 05:34N 51°26' E 002°08'1111.0
2017-Feb-24 04:33N 51°15' E 002°06'1110.8
2017-Feb-24 03:33N 51°09' E 001°52'1111.5
2017-Feb-24 02:33N 51°02' E 001°38'6912.9
2017-Feb-23 21:12N 50°22' E 000°10'914.4
2017-Feb-23 20:33N 50°20' W 000°05'1714.4
2017-Feb-23 19:21N 50°17' W 000°31'8614.6
2017-Feb-23 13:30N 50°09' W 002°45'1313.3
2017-Feb-23 12:33N 50°07' W 003°04'1313.4
2017-Feb-23 11:33N 50°05' W 003°25'1313.3
2017-Feb-23 10:33N 50°04' W 003°45'1713.4
2017-Feb-23 09:19N 50°01' W 004°11'1213.6
2017-Feb-23 08:26N 49°59' W 004°29'1213.8
2017-Feb-23 07:33N 49°58' W 004°48'1514.9
2017-Feb-23 06:33N 49°55' W 005°11'6410.5
2017-Feb-23 00:24N 50°51' W 006°00'3014.3
2017-Feb-22 22:18N 51°21' W 005°60'1514.9
2017-Feb-22 21:18N 51°36' W 005°59'1314.5
2017-Feb-22 20:23N 51°49' W 005°55'13615.0
2017-Feb-22 11:17N 54°04' W 005°24'1216.7
2017-Feb-22 10:34N 54°16' W 005°21'1616.3
2017-Feb-22 09:34N 54°33' W 005°21'1414.0
2017-Feb-22 08:34N 54°42' W 005°38'10 4.1
2017-Feb-22 06:14N 54°38' W 005°53'0 0.0
2017-Feb-22 05:32N 54°38' W 005°53'0 0.0
2017-Feb-22 04:33N 54°38' W 005°53'0 0.0
2017-Feb-22 03:20N 54°38' W 005°53'0 0.0
2017-Feb-22 01:26N 54°38' W 005°53'0 0.0
2017-Feb-22 00:32N 54°38' W 005°53'0 0.0
2017-Feb-21 23:32N 54°38' W 005°53'0 0.0
2017-Feb-21 22:24N 54°38' W 005°53'0 0.0
2017-Feb-21 21:17N 54°38' W 005°53'0 0.0
2017-Feb-21 20:29N 54°38' W 005°53'0 0.0
2017-Feb-21 13:03N 54°38' W 005°53'0 0.0
2017-Feb-21 06:18N 54°38' W 005°53'0 0.0
2017-Feb-21 05:20N 54°38' W 005°53'0 0.0
2017-Feb-21 00:07N 54°38' W 005°53'3 4.5
2017-Feb-20 23:28N 54°40' W 005°50'8 8.6
2017-Feb-20 22:34N 54°43' W 005°37'1514.7
2017-Feb-20 21:33N 54°32' W 005°21'1616.4
2017-Feb-20 20:33N 54°15' W 005°25'1716.7
2017-Feb-20 19:33N 53°60' W 005°35'178 6.5
2017-Feb-19 16:15N 51°02' W 005°52'1216.5
2017-Feb-19 15:33N 50°51' W 005°52'1616.4
2017-Feb-19 14:33N 50°35' W 005°53'1616.4
2017-Feb-19 13:34N 50°18' W 005°53'3712.2
2017-Feb-19 10:32N 49°56' W 005°07'1414.5
2017-Feb-19 09:33N 49°58' W 004°46'1616.0
2017-Feb-19 08:32N 50°02' W 004°21'1616.5
2017-Feb-19 07:33N 50°04' W 003°56'1717.0
2017-Feb-19 06:33N 50°07' W 003°30'1717.0
2017-Feb-19 05:33N 50°10' W 003°04'1716.8
2017-Feb-19 04:33N 50°13' W 002°38'2216.1
2017-Feb-19 03:12N 50°17' W 002°05'1215.3
2017-Feb-19 02:24N 50°19' W 001°46'1214.7
2017-Feb-19 01:33N 50°22' W 001°27'1414.3
2017-Feb-19 00:33N 50°24' W 001°05'1514.8
2017-Feb-18 23:33N 50°27' W 000°42'1616.1
2017-Feb-18 22:33N 50°30' W 000°17'1716.9
2017-Feb-18 21:34N 50°34' E 000°09'1717.2
2017-Feb-18 20:33N 50°39' E 000°35'1716.9
2017-Feb-18 19:33N 50°48' E 000°57'1616.1
2017-Feb-18 18:34N 50°56' E 001°19'1514.6
2017-Feb-18 17:33N 51°07' E 001°35'1414.2
2017-Feb-18 16:33N 51°18' E 001°48'1615.6
2017-Feb-18 15:33N 51°30' E 002°04'1917.0
2017-Feb-18 14:28N 51°44' E 002°24'2317.7
2017-Feb-18 13:09N 52°01' E 002°49'1117.2
2017-Feb-18 12:31N 52°02' E 003°07'1717.5
2017-Feb-18 11:33N 52°03' E 003°35'1414.6
2017-Feb-18 10:33N 52°01' E 003°58'1211.6
2017-Feb-18 09:33N 51°55' E 004°14'7 7.2
2017-Feb-18 08:33N 51°53' E 004°25'0 0.0
2017-Feb-18 07:33N 51°53' E 004°25'0 0.0
2017-Feb-18 06:33N 51°53' E 004°25'0 0.0
2017-Feb-18 05:33N 51°53' E 004°25'0 0.0
2017-Feb-18 04:33N 51°53' E 004°25'0 0.0
2017-Feb-18 03:33N 51°53' E 004°25'0 0.0
2017-Feb-18 02:33N 51°53' E 004°25'0 0.0
2017-Feb-18 01:33N 51°53' E 004°25'0 0.0
2017-Feb-18 00:33N 51°53' E 004°25'0 0.0
2017-Feb-17 23:33N 51°53' E 004°25'0 0.0
2017-Feb-17 22:33N 51°53' E 004°25'0 0.0
2017-Feb-17 21:33N 51°53' E 004°25'0 0.0
2017-Feb-17 20:33N 51°53' E 004°25'0 0.0
2017-Feb-17 19:33N 51°53' E 004°25'0 0.0
2017-Feb-17 18:33N 51°53' E 004°25'0 0.0
2017-Feb-17 17:33N 51°53' E 004°25'0 0.0
2017-Feb-17 16:33N 51°53' E 004°25'0 0.0
2017-Feb-17 15:33N 51°53' E 004°25'0 0.0
2017-Feb-17 14:33N 51°53' E 004°25'0 0.0
2017-Feb-17 13:33N 51°53' E 004°25'0 0.0
2017-Feb-17 12:33N 51°53' E 004°25'0 0.0
2017-Feb-17 11:33N 51°53' E 004°25'0 0.0
2017-Feb-17 10:33N 51°53' E 004°25'0 0.0
2017-Feb-17 09:33N 51°53' E 004°25'0 0.0
2017-Feb-17 08:33N 51°53' E 004°25'5 4.8
2017-Feb-17 07:33N 51°54' E 004°18'7 7.1
2017-Feb-17 06:33N 51°58' E 004°08'6 5.7
2017-Feb-17 05:33N 51°54' E 004°14'0 0.0
2017-Feb-17 04:33N 51°54' E 004°14'0 0.0
2017-Feb-17 03:33N 51°54' E 004°14'0 0.0
2017-Feb-17 02:33N 51°54' E 004°14'0 0.0
2017-Feb-17 01:33N 51°54' E 004°14'0 0.0
2017-Feb-17 00:33N 51°54' E 004°14'0 0.0
2017-Feb-16 23:33N 51°54' E 004°14'0 0.0
2017-Feb-16 22:33N 51°54' E 004°14'0 0.0
2017-Feb-16 21:33N 51°54' E 004°14'0 0.0
2017-Feb-16 20:30N 51°54' E 004°14'0 0.0
2017-Feb-16 19:33N 51°54' E 004°14'0 0.0
2017-Feb-16 18:33N 51°54' E 004°14'0 0.0
2017-Feb-16 17:33N 51°54' E 004°14'0 0.0
2017-Feb-16 16:33N 51°54' E 004°14'6 5.8
2017-Feb-16 15:33N 51°58' E 004°08'3 3.1
2017-Feb-16 14:32N 51°57' E 004°03'0 0.0
2017-Feb-16 13:32N 51°57' E 004°03'0 0.0
2017-Feb-16 12:32N 51°57' E 004°03'0 0.0
2017-Feb-16 11:32N 51°57' E 004°03'0 0.0
2017-Feb-16 10:33N 51°57' E 004°03'2 1.7
2017-Feb-16 09:33N 51°58' E 004°00'1 0.7
2017-Feb-16 08:29N 51°57' E 004°00'0 0.0
2017-Feb-16 07:32N 51°57' E 004°00'0 0.0
2017-Feb-16 06:33N 51°57' E 004°00'0 0.0
2017-Feb-16 05:30N 51°57' E 004°00'0 0.0
2017-Feb-16 04:33N 51°57' E 004°00'0 0.0
2017-Feb-16 03:33N 51°57' E 004°00'0 0.0
2017-Feb-16 02:33N 51°57' E 004°00'0 0.0
2017-Feb-16 01:33N 51°57' E 004°00'0 0.0
2017-Feb-16 00:33N 51°57' E 004°00'3 2.9
2017-Feb-15 23:33N 51°57' E 004°05'0 0.3
2017-Feb-15 22:33N 51°57' E 004°04'0 0.0
2017-Feb-15 21:33N 51°57' E 004°04'0 0.0
2017-Feb-15 20:33N 51°57' E 004°04'0 0.0
2017-Feb-15 19:33N 51°57' E 004°04'0 0.0
2017-Feb-15 18:33N 51°57' E 004°04'0 0.0
2017-Feb-15 17:33N 51°57' E 004°04'0 0.0
2017-Feb-15 16:33N 51°57' E 004°04'0 0.0
2017-Feb-15 15:33N 51°57' E 004°04'1 0.7
2017-Feb-15 14:32N 51°57' E 004°03'0 0.0
2017-Feb-15 13:32N 51°57' E 004°03'0 0.0
2017-Feb-15 12:32N 51°57' E 004°03'0 0.0
2017-Feb-15 11:31N 51°57' E 004°03'0 0.0
2017-Feb-15 10:31N 51°57' E 004°03'0 0.0
2017-Feb-15 09:31N 51°57' E 004°03'0 0.0
2017-Feb-15 08:31N 51°57' E 004°03'  

Dump ship's entire track history